Weather at Halim Perdanakusuma International Airport

Public forecast

Using degrees Celsius for public forecast. Weather courtesy of forecast.io.

Current aviation weather report (METAR) for Halim Perdanakusuma International Airport

Retrieved 2021/12/01 22:00 UTC (18 minutes ago):

WIHH 012200Z 23003KT 6000 FEW020 25/22 Q1008 NOSIG

Aviation forecast (TAF) for Halim Perdanakusuma International Airport

Retrieved 2021/12/01 18:00 UTC (4 hours ago):

TAF WIHH 011700Z 0118/0218 26005KT 5000 HZ FEW020 BECMG 0200/0202 20012KT 7000 SCT020